WetterOnline ( https://www.wetteronline.de )

Wetter aktuell Prag

Aktuelles Wetter: Prag - Ruzyne (365m)

6-stündlich | Neueste Meldungen
Ortszeit Temperatur Wetter
Mo, 30.11. 1:00 -1.1° C leicht bewölkt
So, 29.11. 19:00 0.3° C wolkig
So, 29.11. 13:00 2.6° C bewölkt
So, 29.11. 7:00 -0.8° C bewölkt
So, 29.11. 1:00 0.0° C bedeckt
Sa, 28.11. 19:00 0.1° C bedeckt
Sa, 28.11. 13:00 -0.1° C bedeckt
Sa, 28.11. 7:00 -0.8° C gefr. Sprühregen
Ortszeit Temperatur Wetter
Mo, 30.11. 6:30 -2° C bewölkt
Mo, 30.11. 6:00 -1.8° C wolkig
Mo, 30.11. 5:30 -2° C leicht bewölkt
Mo, 30.11. 5:00 -1.7° C wolkig
Mo, 30.11. 4:30 -2° C leicht bewölkt
Mo, 30.11. 4:00 -2.4° C leicht bewölkt
Mo, 30.11. 3:30 -2° C leicht bewölkt
Mo, 30.11. 3:00 -1.6° C leicht bewölkt
Ortszeit Relative Feuchte Sichtweite
Mo, 30.11. 1:00 90% 30 km
So, 29.11. 19:00 92% 30 km
So, 29.11. 13:00 79% 30 km
So, 29.11. 7:00 93% 15 km
So, 29.11. 1:00 86% 20 km
Sa, 28.11. 19:00 99% 10 km
Sa, 28.11. 13:00 99% 2.5 km
Sa, 28.11. 7:00 99% 0.4 km
Ortszeit Relative Feuchte Sichtweite
Mo, 30.11. 6:30 93% >10 km
Mo, 30.11. 6:00 90% 40 km
Mo, 30.11. 5:30 93% >10 km
Mo, 30.11. 5:00 91% 35 km
Mo, 30.11. 4:30 86% >10 km
Mo, 30.11. 4:00 92% 35 km
Mo, 30.11. 3:30 93% >10 km
Mo, 30.11. 3:00 91% 35 km
Ortszeit Niederschlagsmenge Niederschlagsart
Mo, 30.11. 1:00 0.0 l/m2 in 6 Std. -
So, 29.11. 19:00 0.0 l/m2 in 12 Std. -
So, 29.11. 13:00 0.0 l/m2 in 6 Std. -
So, 29.11. 7:00 0.0 l/m2 in 12 Std. -
So, 29.11. 1:00 0.0 l/m2 in 6 Std. -
Sa, 28.11. 19:00 0.1 l/m2 in 12 Std. -
Sa, 28.11. 13:00 0.1 l/m2 in 6 Std. Sprühregen, Nebel
Sa, 28.11. 7:00 0.1 l/m2 in 12 Std. Sprühregen, Nebel
Ortszeit Niederschlagsmenge Niederschlagsart
Mo, 30.11. 6:30 keine Meldung -
Mo, 30.11. 6:00 0.0 l/m2 in 1 Std. -
Mo, 30.11. 5:30 keine Meldung -
Mo, 30.11. 5:00 0.0 l/m2 in 1 Std. -
Mo, 30.11. 4:30 keine Meldung -
Mo, 30.11. 4:00 0.0 l/m2 in 1 Std. -
Mo, 30.11. 3:30 keine Meldung -
Mo, 30.11. 3:00 0.0 l/m2 in 1 Std. -
Ortszeit Stärke Spitze Richtung
km/h Bft. km/h Grad Sektor
Mo, 30.11. 1:00 7 2 - 240° SW
So, 29.11. 19:00 11 2 - 330° NW
So, 29.11. 13:00 14 3 - 340° N
So, 29.11. 7:00 7 2 - 340° N
So, 29.11. 1:00 7 2 - 340° N
Sa, 28.11. 19:00 4 1 - uml. uml.
Sa, 28.11. 13:00 4 1 - 320° NW
Sa, 28.11. 7:00 7 2 - 340° N
Ortszeit Stärke Spitze Richtung
km/h Bft. km/h Grad Sektor
Mo, 30.11. 6:30 9 2 - 230° SW
Mo, 30.11. 6:00 11 2 - 240° SW
Mo, 30.11. 5:30 9 2 - 230° SW
Mo, 30.11. 5:00 11 2 - 240° SW
Mo, 30.11. 4:30 7 2 - 230° SW
Mo, 30.11. 4:00 11 2 - 250° W
Mo, 30.11. 3:30 11 2 - 220° SW
Mo, 30.11. 3:00 11 2 - 240° SW
Ortszeit Untergrenze Bedeckung Gattung
total tief tief mittel hoch
Mo, 30.11. 1:00 1500 m 4/8 4/8 Sc - -
So, 29.11. 19:00 510 m 6/8 6/8 Sc - -
So, 29.11. 13:00 480 m 7/8 7/8 Cu - -
So, 29.11. 7:00 1050 m 7/8 7/8 Sc - -
So, 29.11. 1:00 1080 m 8/8 8/8 Sc - -
Sa, 28.11. 19:00 780 m 8/8 8/8 Sc - -
Sa, 28.11. 13:00 30 m 8/8 8/8 St - -
Sa, 28.11. 7:00 - 8/8 - - - -
Ortszeit Bedeckungsgrad in Achtel und Wolkenuntergrenze
Mo, 30.11. 6:30 1-2(690m) 5-7(1470m)
Mo, 30.11. 6:00 1(810m) 5(1500m)
Mo, 30.11. 5:30 1-2(690m)
Mo, 30.11. 5:00 1(690m) 5(1500m)
Mo, 30.11. 4:30 1-2(690m)
Mo, 30.11. 4:00 2(1500m)
Mo, 30.11. 3:30 1-2(600m)
Mo, 30.11. 3:00 1(510m) 3(1500m)
Ortszeit Luftdruck NN (hPa) Tendenz (hPa in 3 Std.)
Mo, 30.11. 1:00 1027 - 0,1
So, 29.11. 19:00 1026 + 0,8
So, 29.11. 13:00 1025 - 0,7
So, 29.11. 7:00 1026 + 0,1
So, 29.11. 1:00 1026 - 0,4
Sa, 28.11. 19:00 1025 + 0,5
Sa, 28.11. 13:00 1025 - 0,3
Sa, 28.11. 7:00 1024 + 0,1
Ortszeit Luftdruck NN (hPa) Tendenz (hPa in 3 Std.)
Mo, 30.11. 6:30 1025 keine Meldung
Mo, 30.11. 6:00 1028 + 0,5
Mo, 30.11. 5:30 1025 keine Meldung
Mo, 30.11. 5:00 1028 + 0,5
Mo, 30.11. 4:30 1025 keine Meldung
Mo, 30.11. 4:00 1027 + 0,1
Mo, 30.11. 3:30 1024 keine Meldung
Mo, 30.11. 3:00 1027 + 0,3
Ortszeit Schneehöhe (cm)
Mo, 30.11. 1:00 -
So, 29.11. 19:00 -
So, 29.11. 13:00 -
So, 29.11. 7:00 -
So, 29.11. 1:00 -
Sa, 28.11. 19:00 -
Sa, 28.11. 13:00 -
Sa, 28.11. 7:00 0
Ortszeit Schneehöhe (cm)
Mo, 30.11. 6:30 -
Mo, 30.11. 6:00 -
Mo, 30.11. 5:30 -
Mo, 30.11. 5:00 -
Mo, 30.11. 4:30 -
Mo, 30.11. 4:00 -
Mo, 30.11. 3:30 -
Mo, 30.11. 3:00 -
Link zu dieser Seite / Seite empfehlen

Das Wetter in ...